createdAt,value
2023-01-30T00:01:12.917Z,4.42
2023-01-30T00:03:39.483Z,4.48
2023-01-30T00:06:06.374Z,4.49
2023-01-30T00:08:32.975Z,4.52
2023-01-30T00:11:07.351Z,4.56
2023-01-30T00:13:34.303Z,4.45
2023-01-30T00:16:01.143Z,4.42
2023-01-30T00:18:27.735Z,4.48
2023-01-30T00:21:00.728Z,4.59
2023-01-30T00:23:28.836Z,4.70
2023-01-30T00:25:56.109Z,4.72
2023-01-30T00:28:23.156Z,4.73
2023-01-30T00:30:50.683Z,4.73
2023-01-30T00:33:18.206Z,4.75
2023-01-30T00:35:46.086Z,4.75
2023-01-30T00:38:14.144Z,4.75
2023-01-30T00:40:41.164Z,4.75
2023-01-30T00:43:26.623Z,4.77
2023-01-30T00:46:13.664Z,4.83
2023-01-30T00:48:40.266Z,4.79
2023-01-30T00:51:06.867Z,4.77
2023-01-30T00:53:33.531Z,4.79
2023-01-30T00:56:00.084Z,4.83
2023-01-30T01:00:36.546Z,4.79
2023-01-30T01:03:03.709Z,4.80
2023-01-30T01:05:30.431Z,4.80
2023-01-30T01:07:57.051Z,4.88
2023-01-30T01:10:24.439Z,4.90
2023-01-30T01:12:54.568Z,4.96
2023-01-30T01:15:22.500Z,4.97
2023-01-30T01:17:50.188Z,5.06
2023-01-30T01:20:18.437Z,5.08
2023-01-30T01:22:45.892Z,5.08
2023-01-30T01:25:12.460Z,5.07
2023-01-30T01:27:39.052Z,5.03
2023-01-30T01:30:06.674Z,5.07
2023-01-30T01:32:33.260Z,5.07
2023-01-30T01:35:03.055Z,5.03
2023-01-30T01:37:29.670Z,5.04
2023-01-30T01:40:15.139Z,5.01
2023-01-30T01:42:41.721Z,4.97
2023-01-30T01:45:16.237Z,5.00
2023-01-30T01:48:03.047Z,4.97
2023-01-30T01:51:09.318Z,5.00
2023-01-30T01:53:54.563Z,5.00
2023-01-30T01:56:22.027Z,4.97
2023-01-30T01:58:54.693Z,4.98
2023-01-30T02:01:22.027Z,5.00
2023-01-30T02:03:56.894Z,5.07
2023-01-30T02:06:23.612Z,5.01
2023-01-30T02:09:05.265Z,4.98
2023-01-30T02:11:42.824Z,5.04
2023-01-30T02:14:12.195Z,5.00
2023-01-30T02:16:38.901Z,5.01
2023-01-30T02:19:30.195Z,5.00
2023-01-30T02:22:18.433Z,5.00
2023-01-30T02:25:06.833Z,5.03
2023-01-30T02:27:52.189Z,5.06
2023-01-30T02:30:43.284Z,5.01
2023-01-30T02:33:31.824Z,5.01
2023-01-30T02:36:06.674Z,4.97
2023-01-30T02:38:42.822Z,4.93
2023-01-30T02:41:34.704Z,4.91
2023-01-30T02:44:13.422Z,4.88
2023-01-30T02:47:05.113Z,4.87
2023-01-30T02:49:56.029Z,4.84
2023-01-30T02:52:23.358Z,4.86
2023-01-30T02:54:49.859Z,4.88
2023-01-30T02:57:24.328Z,4.90
2023-01-30T02:59:59.261Z,4.88
2023-01-30T03:02:38.177Z,4.87
2023-01-30T03:05:04.838Z,4.91
2023-01-30T03:07:49.810Z,4.94
2023-01-30T03:10:29.569Z,4.94
2023-01-30T03:13:06.047Z,5.00
2023-01-30T03:15:42.637Z,4.97
2023-01-30T03:18:09.871Z,5.00
2023-01-30T03:20:38.357Z,5.01
2023-01-30T03:23:05.262Z,5.01
2023-01-30T03:25:33.654Z,5.03
2023-01-30T03:28:02.798Z,5.04
2023-01-30T03:30:29.596Z,5.06
2023-01-30T03:32:56.301Z,5.04
2023-01-30T03:35:23.064Z,5.07
2023-01-30T03:37:49.859Z,5.14
2023-01-30T03:40:17.808Z,5.16
2023-01-30T03:42:44.605Z,5.21
2023-01-30T03:45:11.872Z,5.21
2023-01-30T03:47:38.474Z,5.24
2023-01-30T03:50:05.807Z,5.24
2023-01-30T03:52:35.507Z,5.25
2023-01-30T03:55:02.330Z,5.31
2023-01-30T03:57:28.885Z,5.27
2023-01-30T03:59:55.489Z,5.30
2023-01-30T04:02:23.479Z,5.34
2023-01-30T04:04:50.138Z,5.35
2023-01-30T04:07:16.790Z,5.34
2023-01-30T04:09:43.618Z,5.37
2023-01-30T04:12:10.232Z,5.34
2023-01-30T04:14:36.815Z,5.28
2023-01-30T04:17:03.546Z,5.32
2023-01-30T04:19:30.110Z,5.28
2023-01-30T04:21:56.705Z,5.34
2023-01-30T04:24:23.302Z,5.31
2023-01-30T04:26:49.835Z,5.34
2023-01-30T04:29:16.419Z,5.31
2023-01-30T04:31:43.020Z,5.37
2023-01-30T04:34:09.543Z,5.37
2023-01-30T04:36:37.080Z,5.38
2023-01-30T04:39:04.226Z,5.38
2023-01-30T04:41:30.857Z,5.41
2023-01-30T04:43:57.406Z,5.42
2023-01-30T04:46:24.087Z,5.41
2023-01-30T04:48:50.590Z,5.39
2023-01-30T04:51:17.302Z,5.39
2023-01-30T04:53:43.816Z,5.37
2023-01-30T04:56:10.692Z,5.35
2023-01-30T04:58:37.259Z,5.28
2023-01-30T05:01:29.683Z,5.28
2023-01-30T05:03:56.571Z,5.27
2023-01-30T05:06:24.000Z,5.18
2023-01-30T05:08:52.258Z,5.18
2023-01-30T05:11:20.027Z,5.11
2023-01-30T05:13:46.985Z,5.13
2023-01-30T05:16:14.764Z,5.11
2023-01-30T05:18:41.862Z,5.07
2023-01-30T05:21:10.967Z,5.00
2023-01-30T05:23:37.580Z,5.03
2023-01-30T05:26:04.578Z,5.01
2023-01-30T05:28:31.499Z,5.01
2023-01-30T05:31:07.836Z,4.97
2023-01-30T05:33:34.783Z,4.97
2023-01-30T05:36:02.189Z,4.97
2023-01-30T05:38:28.836Z,4.93
2023-01-30T05:41:06.916Z,4.94
2023-01-30T05:43:35.298Z,4.97
2023-01-30T05:46:06.083Z,5.00
2023-01-30T05:48:33.773Z,5.00
2023-01-30T05:51:00.540Z,5.03
2023-01-30T05:53:29.940Z,5.03
2023-01-30T05:55:57.289Z,5.03
2023-01-30T05:58:24.278Z,5.01
2023-01-30T06:00:51.113Z,5.04
2023-01-30T06:03:18.114Z,5.07
2023-01-30T06:05:44.833Z,5.04
2023-01-30T06:08:11.675Z,5.08
2023-01-30T06:10:38.488Z,5.11
2023-01-30T06:13:05.055Z,5.11
2023-01-30T06:15:31.655Z,5.16
2023-01-30T06:17:58.277Z,5.20
2023-01-30T06:20:24.942Z,5.23
2023-01-30T06:22:51.664Z,5.23
2023-01-30T06:25:18.848Z,5.23
2023-01-30T06:27:46.564Z,5.25
2023-01-30T06:30:14.123Z,5.28
2023-01-30T06:32:41.541Z,5.30
2023-01-30T06:35:08.621Z,5.41
2023-01-30T06:37:35.416Z,5.37
2023-01-30T06:40:02.015Z,5.39
2023-01-30T06:42:28.560Z,5.41
2023-01-30T06:44:55.219Z,5.44
2023-01-30T06:47:21.807Z,5.48
2023-01-30T06:49:49.238Z,5.51
2023-01-30T06:52:15.858Z,5.60
2023-01-30T06:54:42.371Z,5.62
2023-01-30T06:57:09.042Z,5.67
2023-01-30T06:59:35.756Z,5.76
2023-01-30T07:02:02.419Z,5.86
2023-01-30T07:04:29.010Z,5.93
2023-01-30T07:06:55.650Z,5.96
2023-01-30T07:09:22.308Z,5.96
2023-01-30T07:11:50.412Z,5.99
2023-01-30T07:14:16.934Z,5.96
2023-01-30T07:16:43.691Z,5.99
2023-01-30T07:19:10.291Z,5.95
2023-01-30T07:21:36.815Z,5.92
2023-01-30T07:24:03.403Z,5.93
2023-01-30T07:26:31.385Z,5.93
2023-01-30T07:28:58.399Z,5.92
2023-01-30T07:32:36.127Z,5.95
2023-01-30T07:35:05.547Z,5.95
2023-01-30T07:37:32.293Z,5.95
2023-01-30T07:39:59.801Z,5.95
2023-01-30T07:42:26.160Z,5.96
2023-01-30T07:44:52.618Z,5.96
2023-01-30T07:47:20.179Z,5.97
2023-01-30T07:49:46.752Z,5.97
2023-01-30T07:52:13.197Z,6.03
2023-01-30T07:54:39.599Z,6.06
2023-01-30T07:57:06.150Z,6.11
2023-01-30T07:59:32.651Z,6.13
2023-01-30T08:01:59.168Z,6.13
2023-01-30T08:04:25.635Z,6.14
2023-01-30T08:06:52.105Z,6.20
2023-01-30T08:09:19.710Z,6.21
2023-01-30T08:11:46.331Z,6.20
2023-01-30T08:14:12.990Z,6.30
2023-01-30T08:16:39.779Z,6.31
2023-01-30T08:19:06.385Z,6.34
2023-01-30T08:21:33.614Z,6.38
2023-01-30T08:24:01.227Z,6.45
2023-01-30T08:26:28.583Z,6.49
2023-01-30T08:28:55.984Z,6.49
2023-01-30T08:31:22.945Z,6.51
2023-01-30T08:33:49.458Z,6.56
2023-01-30T08:36:16.031Z,6.61
2023-01-30T08:38:42.618Z,6.52
2023-01-30T08:41:09.795Z,6.52
2023-01-30T08:43:36.656Z,6.54
2023-01-30T08:46:03.500Z,6.71
2023-01-30T08:48:43.363Z,6.86
2023-01-30T08:51:15.473Z,7.06
2023-01-30T08:53:41.869Z,7.20
2023-01-30T08:56:08.381Z,7.40
2023-01-30T08:58:34.790Z,7.51
2023-01-30T09:01:05.551Z,7.35
2023-01-30T09:03:33.469Z,7.27
2023-01-30T09:05:59.917Z,7.22
2023-01-30T09:08:26.347Z,7.24
2023-01-30T09:10:52.702Z,7.44
2023-01-30T09:13:19.907Z,7.75
2023-01-30T09:15:46.412Z,7.71
2023-01-30T09:18:12.774Z,7.91
2023-01-30T09:20:39.178Z,7.85
2023-01-30T09:23:05.626Z,7.86
2023-01-30T09:25:32.024Z,8.09
2023-01-30T09:27:58.446Z,8.09
2023-01-30T09:30:24.951Z,7.99
2023-01-30T09:32:51.521Z,8.05
2023-01-30T09:35:18.442Z,8.34
2023-01-30T09:37:53.541Z,8.21
2023-01-30T09:40:24.829Z,8.46
2023-01-30T09:43:12.156Z,8.06
2023-01-30T09:46:13.382Z,8.57
2023-01-30T09:49:03.988Z,8.60
2023-01-30T09:51:53.263Z,8.46
2023-01-30T09:54:28.944Z,8.73
2023-01-30T09:57:01.153Z,8.82
2023-01-30T09:59:39.218Z,8.94
2023-01-30T10:02:27.279Z,8.87
2023-01-30T10:05:01.743Z,8.95
2023-01-30T10:07:57.522Z,8.98
2023-01-30T10:11:00.803Z,9.11
2023-01-30T10:13:41.629Z,8.65
2023-01-30T10:16:14.810Z,8.71
2023-01-30T10:18:55.647Z,8.44
2023-01-30T10:21:47.593Z,8.30
2023-01-30T10:24:29.619Z,8.16
2023-01-30T10:26:59.383Z,8.01
2023-01-30T10:29:33.381Z,7.99
2023-01-30T10:32:27.038Z,7.95
2023-01-30T10:34:58.173Z,7.98
2023-01-30T10:37:31.014Z,7.93
2023-01-30T10:40:03.775Z,7.84
2023-01-30T10:42:45.215Z,7.86
2023-01-30T10:45:25.385Z,7.81
2023-01-30T10:48:45.815Z,7.82
2023-01-30T10:51:55.899Z,7.81
2023-01-30T10:54:28.018Z,7.77
2023-01-30T10:57:16.700Z,7.67
2023-01-30T11:00:05.558Z,7.74
2023-01-30T11:03:27.378Z,7.77
2023-01-30T11:06:02.815Z,7.75
2023-01-30T11:08:33.101Z,7.68
2023-01-30T11:11:00.768Z,7.68
2023-01-30T11:13:32.540Z,7.72
2023-01-30T11:16:09.344Z,7.65
2023-01-30T11:21:43.958Z,7.67
2023-01-30T11:24:17.669Z,7.65
2023-01-30T11:26:47.772Z,7.65
2023-01-30T11:29:23.594Z,7.64
2023-01-30T11:31:51.453Z,7.67
2023-01-30T11:34:20.686Z,7.63
2023-01-30T11:36:47.556Z,7.67
2023-01-30T11:39:21.936Z,7.70
2023-01-30T11:41:54.252Z,7.70
2023-01-30T11:44:36.095Z,7.75
2023-01-30T11:47:08.369Z,7.81
2023-01-30T11:49:48.593Z,7.95
2023-01-30T11:52:34.995Z,7.84
2023-01-30T11:55:08.637Z,7.82
2023-01-30T11:57:58.672Z,7.82
2023-01-30T12:00:30.644Z,7.81
2023-01-30T12:03:04.677Z,7.82
2023-01-30T12:05:42.141Z,7.84
2023-01-30T12:08:14.813Z,7.85
2023-01-30T12:10:43.626Z,7.82
2023-01-30T12:13:20.146Z,7.70
2023-01-30T12:15:50.349Z,7.72
2023-01-30T12:18:29.819Z,7.70
2023-01-30T12:21:00.773Z,7.70
2023-01-30T12:23:39.470Z,7.72
2023-01-30T12:26:25.917Z,7.70
2023-01-30T12:29:03.842Z,7.70
2023-01-30T12:31:35.902Z,7.74
2023-01-30T12:34:05.368Z,7.75
2023-01-30T12:37:04.026Z,7.81
2023-01-30T12:39:36.279Z,7.78
2023-01-30T12:42:23.712Z,7.77
2023-01-30T12:45:06.629Z,7.74
2023-01-30T12:47:48.017Z,7.82
2023-01-30T12:50:25.885Z,7.88
2023-01-30T12:53:15.151Z,7.92
2023-01-30T12:55:47.759Z,8.01
2023-01-30T12:58:58.587Z,8.10
2023-01-30T13:01:36.927Z,8.18
2023-01-30T13:04:22.238Z,8.21
2023-01-30T13:07:11.668Z,8.21
2023-01-30T13:09:47.567Z,8.40
2023-01-30T13:12:50.445Z,8.37
2023-01-30T13:15:35.582Z,8.23
2023-01-30T13:18:27.055Z,8.18
2023-01-30T13:20:57.267Z,8.16
2023-01-30T13:23:32.646Z,8.22
2023-01-30T13:26:02.319Z,8.22
2023-01-30T13:28:35.976Z,8.21
2023-01-30T13:31:06.906Z,8.22
2023-01-30T13:33:37.894Z,8.19
2023-01-30T13:36:27.460Z,8.22
2023-01-30T13:39:27.663Z,8.32
2023-01-30T13:41:57.599Z,8.29
2023-01-30T13:44:31.390Z,8.25
2023-01-30T13:47:08.057Z,8.22
2023-01-30T13:49:58.051Z,8.28
2023-01-30T13:52:37.418Z,8.22
2023-01-30T13:55:19.836Z,8.23
2023-01-30T13:57:54.799Z,8.25
2023-01-30T14:00:34.339Z,8.28
2023-01-30T14:03:04.048Z,8.39
2023-01-30T14:05:57.265Z,8.29
2023-01-30T14:08:26.904Z,8.21
2023-01-30T14:10:55.666Z,8.23
2023-01-30T14:13:24.170Z,8.26
2023-01-30T14:16:01.445Z,8.13
2023-01-30T14:18:31.677Z,8.15
2023-01-30T14:21:19.117Z,8.22
2023-01-30T14:24:03.542Z,8.22
2023-01-30T14:26:48.440Z,8.19
2023-01-30T14:29:42.659Z,8.19
2023-01-30T14:32:13.035Z,8.18
2023-01-30T14:34:48.188Z,8.23
2023-01-30T14:37:41.447Z,8.15
2023-01-30T14:40:23.345Z,8.22
2023-01-30T14:43:34.357Z,8.28
2023-01-30T14:46:08.584Z,8.40
2023-01-30T14:48:44.938Z,8.37
2023-01-30T14:51:26.116Z,8.46
2023-01-30T14:54:02.333Z,8.32
2023-01-30T14:56:56.970Z,8.21
2023-01-30T14:59:27.958Z,8.29
2023-01-30T15:02:12.604Z,8.30
2023-01-30T15:04:47.568Z,8.18
2023-01-30T15:07:26.369Z,8.12
2023-01-30T15:10:00.966Z,8.12
2023-01-30T15:12:55.329Z,8.15
2023-01-30T15:15:43.038Z,8.12
2023-01-30T15:18:15.405Z,8.10
2023-01-30T15:20:47.213Z,8.07
2023-01-30T15:23:43.007Z,8.09
2023-01-30T15:26:16.325Z,8.07
2023-01-30T15:28:55.070Z,8.01
2023-01-30T15:31:23.613Z,7.99
2023-01-30T15:33:52.606Z,7.86
2023-01-30T15:36:31.105Z,7.82
2023-01-30T15:39:00.512Z,7.65
2023-01-30T15:41:29.528Z,7.60
2023-01-30T15:44:02.637Z,7.63
2023-01-30T15:46:43.201Z,7.67
2023-01-30T15:49:18.325Z,7.58
2023-01-30T15:51:45.490Z,7.60
2023-01-30T15:54:17.573Z,7.55
2023-01-30T15:56:48.844Z,7.55
2023-01-30T15:59:32.377Z,7.54
2023-01-30T16:02:03.871Z,7.50
2023-01-30T16:04:30.832Z,7.54
2023-01-30T16:06:57.476Z,7.61
2023-01-30T16:09:27.053Z,7.53
2023-01-30T16:11:53.682Z,7.39
2023-01-30T16:14:22.951Z,7.40
2023-01-30T16:17:04.489Z,7.39
2023-01-30T16:19:34.072Z,7.39
2023-01-30T16:22:12.791Z,7.42
2023-01-30T16:24:45.933Z,7.40
2023-01-30T16:27:35.184Z,7.39
2023-01-30T16:30:07.925Z,7.42
2023-01-30T16:32:35.854Z,7.43
2023-01-30T16:35:15.367Z,7.40
2023-01-30T16:37:41.996Z,7.31
2023-01-30T16:40:14.782Z,7.26
2023-01-30T16:42:42.186Z,7.30
2023-01-30T16:45:19.457Z,7.27
2023-01-30T16:47:46.605Z,7.20
2023-01-30T16:50:22.597Z,7.17
2023-01-30T16:52:55.160Z,7.20
2023-01-30T16:55:27.114Z,7.09
2023-01-30T16:57:58.188Z,7.19
2023-01-30T17:00:51.433Z,7.17
2023-01-30T17:03:31.531Z,7.22
2023-01-30T17:05:59.850Z,7.26
2023-01-30T17:08:47.320Z,7.23
2023-01-30T17:11:33.464Z,7.17
2023-01-30T17:14:22.537Z,7.13
2023-01-30T17:17:09.773Z,7.20
2023-01-30T17:19:37.238Z,7.22
2023-01-30T17:22:07.890Z,7.22
2023-01-30T17:24:36.138Z,7.14
2023-01-30T17:27:04.540Z,7.10
2023-01-30T17:29:42.448Z,7.16
2023-01-30T17:32:13.247Z,7.22
2023-01-30T17:34:41.415Z,7.22
2023-01-30T17:37:16.673Z,7.22
2023-01-30T17:39:43.158Z,7.23
2023-01-30T17:42:10.698Z,7.16
2023-01-30T17:44:37.171Z,7.17
2023-01-30T17:47:03.838Z,7.20
2023-01-30T17:49:30.317Z,7.12
2023-01-30T17:51:59.288Z,7.10
2023-01-30T17:54:30.133Z,7.13
2023-01-30T17:57:02.271Z,7.14
2023-01-30T17:59:28.991Z,7.13
2023-01-30T18:01:55.566Z,7.07
2023-01-30T18:04:22.807Z,7.09
2023-01-30T18:06:56.901Z,7.05
2023-01-30T18:09:24.498Z,7.03
2023-01-30T18:11:52.740Z,7.05
2023-01-30T18:14:19.331Z,7.09
2023-01-30T18:16:46.393Z,7.13
2023-01-30T18:19:15.407Z,7.19
2023-01-30T18:21:45.669Z,7.12
2023-01-30T18:24:13.516Z,7.00
2023-01-30T18:26:40.685Z,6.82
2023-01-30T18:29:09.565Z,6.63
2023-01-30T18:31:37.050Z,6.67
2023-01-30T18:34:03.634Z,6.67
2023-01-30T18:36:35.803Z,6.56
2023-01-30T18:39:04.899Z,6.54
2023-01-30T18:41:31.982Z,6.58
2023-01-30T18:44:01.517Z,6.64
2023-01-30T18:46:28.922Z,6.65
2023-01-30T18:48:56.218Z,6.58
2023-01-30T18:51:30.429Z,6.54
2023-01-30T18:53:58.657Z,6.60
2023-01-30T18:57:36.152Z,6.56
2023-01-30T19:00:03.091Z,6.56
2023-01-30T19:02:29.793Z,6.54
2023-01-30T19:04:56.547Z,6.55
2023-01-30T19:07:23.231Z,6.52
2023-01-30T19:09:49.808Z,6.58
2023-01-30T19:12:35.168Z,6.56
2023-01-30T19:15:01.974Z,6.56
2023-01-30T19:17:28.541Z,6.56
2023-01-30T19:19:57.286Z,6.54
2023-01-30T19:22:23.792Z,6.49
2023-01-30T19:24:50.244Z,6.54
2023-01-30T19:27:16.827Z,6.55
2023-01-30T19:29:43.454Z,6.47
2023-01-30T19:32:09.950Z,6.45
2023-01-30T19:34:37.290Z,6.51
2023-01-30T19:37:03.965Z,6.40
2023-01-30T19:39:30.517Z,6.37
2023-01-30T19:41:57.099Z,6.34
2023-01-30T19:44:23.689Z,6.38
2023-01-30T19:46:50.800Z,6.23
2023-01-30T19:49:17.471Z,6.25
2023-01-30T19:51:43.993Z,6.34
2023-01-30T19:54:12.067Z,6.18
2023-01-30T19:56:40.908Z,6.10
2023-01-30T19:59:08.438Z,6.04
2023-01-30T20:01:37.648Z,6.03
2023-01-30T20:04:05.341Z,6.10
2023-01-30T20:06:33.912Z,5.97
2023-01-30T20:09:06.244Z,5.86
2023-01-30T20:11:37.121Z,5.90
2023-01-30T20:14:05.308Z,6.00
2023-01-30T20:16:34.575Z,5.96
2023-01-30T20:19:07.902Z,5.90
2023-01-30T20:21:35.909Z,5.95
2023-01-30T20:24:02.561Z,5.87
2023-01-30T20:26:32.100Z,5.92
2023-01-30T20:28:58.772Z,5.90
2023-01-30T20:31:27.489Z,5.86
2023-01-30T20:33:56.757Z,5.80
2023-01-30T20:36:25.397Z,5.85
2023-01-30T20:38:52.321Z,5.79
2023-01-30T20:41:23.885Z,5.67
2023-01-30T20:43:53.503Z,5.62
2023-01-30T20:46:28.351Z,5.51
2023-01-30T20:48:56.885Z,5.51
2023-01-30T20:51:30.027Z,5.66
2023-01-30T20:53:58.207Z,5.58
2023-01-30T20:56:26.735Z,5.58
2023-01-30T20:58:53.352Z,5.52
2023-01-30T21:01:22.804Z,5.41
2023-01-30T21:03:52.244Z,5.59
2023-01-30T21:06:37.086Z,5.66
2023-01-30T21:09:13.321Z,5.72
2023-01-30T21:11:40.369Z,5.75
2023-01-30T21:14:07.464Z,5.73
2023-01-30T21:16:35.227Z,5.72
2023-01-30T21:19:05.971Z,5.63
2023-01-30T21:21:37.010Z,5.63
2023-01-30T21:24:11.025Z,5.55
2023-01-30T21:26:39.937Z,5.62
2023-01-30T21:29:08.311Z,5.72
2023-01-30T21:31:36.325Z,5.58
2023-01-30T21:34:03.839Z,5.55
2023-01-30T21:36:30.975Z,5.51
2023-01-30T21:39:16.480Z,5.48
2023-01-30T21:42:04.911Z,5.60
2023-01-30T21:44:37.860Z,5.51
2023-01-30T21:47:06.734Z,5.49
2023-01-30T21:49:34.094Z,5.41
2023-01-30T21:52:00.918Z,5.37
2023-01-30T21:54:27.815Z,5.34
2023-01-30T21:56:54.757Z,5.39
2023-01-30T21:59:21.368Z,5.34
2023-01-30T22:01:48.608Z,5.32
2023-01-30T22:04:15.816Z,5.28
2023-01-30T22:06:43.381Z,5.24
2023-01-30T22:09:13.419Z,5.28
2023-01-30T22:11:40.140Z,5.30
2023-01-30T22:14:06.692Z,5.28
2023-01-30T22:16:33.827Z,5.35
2023-01-30T22:19:04.587Z,5.34
2023-01-30T22:21:36.169Z,5.37
2023-01-30T22:24:05.375Z,5.32
2023-01-30T22:26:32.014Z,5.34
2023-01-30T22:29:00.223Z,5.32
2023-01-30T22:31:30.260Z,5.31
2023-01-30T22:33:57.189Z,5.27
2023-01-30T22:36:26.824Z,5.31
2023-01-30T22:38:54.258Z,5.28
2023-01-30T22:41:23.291Z,5.24
2023-01-30T22:43:53.310Z,5.31
2023-01-30T22:46:20.076Z,5.34
2023-01-30T22:48:46.967Z,5.28
2023-01-30T22:51:14.987Z,5.24
2023-01-30T22:53:44.342Z,5.25
2023-01-30T22:56:13.476Z,5.23
2023-01-30T22:58:40.492Z,5.25
2023-01-30T23:01:16.048Z,5.34
2023-01-30T23:03:44.364Z,5.31
2023-01-30T23:06:13.393Z,5.34
2023-01-30T23:08:41.879Z,5.37
2023-01-30T23:11:21.099Z,5.39
2023-01-30T23:13:50.188Z,5.44
2023-01-30T23:16:19.485Z,5.44
2023-01-30T23:18:55.134Z,5.41
2023-01-30T23:21:29.289Z,5.44
2023-01-30T23:23:58.776Z,5.45
2023-01-30T23:26:27.796Z,5.49
2023-01-30T23:28:54.414Z,5.52
2023-01-30T23:31:23.731Z,5.54
2023-01-30T23:33:59.193Z,5.52
2023-01-30T23:36:26.650Z,5.52
2023-01-30T23:38:55.271Z,5.49
2023-01-30T23:41:24.765Z,5.55
2023-01-30T23:43:51.916Z,5.54
2023-01-30T23:46:25.296Z,5.56
2023-01-30T23:49:06.704Z,5.55
2023-01-30T23:51:35.515Z,5.56
2023-01-30T23:54:03.052Z,5.58
2023-01-30T23:56:31.775Z,5.52
2023-01-30T23:58:59.210Z,5.58
